Time;durP1;ratioP1;P1;durP2;ratioP2;P2;SDS_P1;SDS_P2;PMS_P1;PMS_P2;Temp;Humidity;BMP_temperature;BMP_pressure;BME280_temperature;BME280_humidity;BME280_pressure;Samples;Min_cycle;Max_cycle;Signal;HPM_P1;HPM_P2
2023/08/10 00:00:48;;;;;;;0.00;0.00;;;11.90;97.90;;;;;;5051401;28;20128;-86
2023/08/10 00:03:13;;;;;;;0.28;0.15;;;11.80;18.40;;;;;;5053306;28;20045;-87
2023/08/10 00:05:39;;;;;;;0.10;0.10;;;11.70;43.80;;;;;;5034730;28;20049;-86
2023/08/10 00:08:05;;;;;;;0.00;0.00;;;11.60;99.90;;;;;;5052869;28;20132;-87
2023/08/10 00:10:31;;;;;;;0.28;0.28;;;11.50;99.90;;;;;;5051187;28;20041;-87
2023/08/10 00:12:56;;;;;;;0.00;0.00;;;11.40;99.90;;;;;;5050764;28;20044;-87
2023/08/10 00:15:22;;;;;;;0.10;0.10;;;11.30;99.90;;;;;;5053318;28;20045;-87
2023/08/10 00:17:49;;;;;;;0.03;0.03;;;11.10;99.90;;;;;;5051345;28;20045;-86
2023/08/10 00:20:14;;;;;;;0.20;0.10;;;11.00;99.90;;;;;;5051467;28;20511;-86
2023/08/10 00:22:40;;;;;;;0.00;0.00;;;10.90;1.00;;;;;;5050454;28;20091;-87
2023/08/10 00:25:07;;;;;;;0.00;0.00;;;10.80;1.00;;;;;;5052037;28;20368;-86
2023/08/10 00:27:34;;;;;;;0.22;0.22;;;10.70;1.00;;;;;;5052429;28;20053;-87
2023/08/10 00:30:00;;;;;;;0.00;0.00;;;10.60;1.00;;;;;;5050707;28;20072;-87
2023/08/10 00:32:26;;;;;;;0.30;0.25;;;10.60;99.90;;;;;;5051496;28;20057;-86
2023/08/10 00:34:51;;;;;;;0.00;0.00;;;10.60;1.00;;;;;;5052897;28;20401;-87
2023/08/10 00:37:17;;;;;;;0.05;0.05;;;10.50;1.00;;;;;;5053300;28;20087;-86
2023/08/10 00:39:43;;;;;;;0.00;0.00;;;10.50;1.00;;;;;;5051181;28;20137;-87
2023/08/10 00:42:10;;;;;;;2.85;0.70;;;10.40;99.90;;;;;;5052610;28;20059;-86
2023/08/10 00:44:36;;;;;;;0.00;0.00;;;10.30;47.00;;;;;;5052584;28;20045;-86
2023/08/10 00:47:02;;;;;;;0.00;0.00;;;10.30;88.30;;;;;;5034988;28;20087;-87
2023/08/10 00:49:28;;;;;;;0.10;0.10;;;10.30;99.90;;;;;;5053548;28;20045;-87
2023/08/10 00:51:53;;;;;;;0.00;0.00;;;10.20;99.90;;;;;;5051663;28;20049;-86
2023/08/10 00:54:19;;;;;;;0.00;0.00;;;10.10;99.90;;;;;;5052562;28;20044;-87
2023/08/10 00:56:45;;;;;;;0.00;0.00;;;10.20;99.90;;;;;;5052876;28;20122;-87
2023/08/10 00:59:11;;;;;;;0.00;0.00;;;11.50;99.90;;;;;;5052785;28;20044;-86
2023/08/10 01:01:37;;;;;;;0.20;0.20;;;10.30;99.90;;;;;;5050575;28;20491;-87
2023/08/10 01:04:02;;;;;;;0.20;0.20;;;10.40;99.90;;;;;;5052325;28;20068;-86
2023/08/10 01:06:57;;;;;;;0.70;0.52;;;10.50;99.90;;;;;;5052496;28;20056;-86
2023/08/10 01:09:47;;;;;;;0.00;0.00;;;10.60;99.90;;;;;;5050903;28;20057;-87
2023/08/10 01:12:30;;;;;;;0.20;0.20;;;10.80;99.90;;;;;;5051192;28;20092;-87
2023/08/10 01:15:17;;;;;;;0.00;0.00;;;10.90;99.90;;;;;;5034529;28;20049;-87
2023/08/10 01:17:47;;;;;;;;;;;10.90;99.90;;;;;;5051286;28;20084;-87
2023/08/10 01:20:14;;;;;;;0.40;0.22;;;11.00;99.90;;;;;;5051170;28;19924;-86
2023/08/10 01:23:11;;;;;;;1.08;0.32;;;11.00;99.90;;;;;;5052648;28;20052;-86
2023/08/10 01:25:37;;;;;;;0.00;0.00;;;11.00;99.90;;;;;;5054189;28;20065;-87
2023/08/10 01:28:04;;;;;;;0.35;0.35;;;11.00;99.90;;;;;;5054411;28;20097;-86
2023/08/10 01:30:30;;;;;;;0.00;0.00;;;11.10;99.90;;;;;;5056247;28;20060;-86
2023/08/10 01:32:56;;;;;;;0.00;0.00;;;12.50;99.60;;;;;;5038222;28;20095;-86
2023/08/10 01:35:22;;;;;;;0.00;0.00;;;11.10;99.90;;;;;;5054311;28;20092;-87
2023/08/10 01:37:48;;;;;;;0.00;0.00;;;11.20;99.90;;;;;;5054723;28;20068;-87
2023/08/10 01:40:13;;;;;;;0.10;0.00;;;11.30;99.90;;;;;;5056362;28;20045;-87
2023/08/10 01:42:41;;;;;;;0.00;0.00;;;12.70;99.90;;;;;;5055037;28;20041;-86
2023/08/10 01:45:08;;;;;;;0.38;0.20;;;11.30;99.90;;;;;;5054997;28;20468;-87
2023/08/10 01:48:02;;;;;;;0.15;0.10;;;11.30;99.90;;;;;;5054089;28;20562;-88
2023/08/10 01:50:31;;;;;;;1.73;1.02;;;11.30;99.90;;;;;;5053597;28;20107;-87
2023/08/10 01:53:04;;;;;;;0.32;0.22;;;12.50;99.90;;;;;;5054945;28;20089;-87
2023/08/10 01:55:29;;;;;;;0.30;0.20;;;11.40;99.90;;;;;;5054711;28;20053;-87
2023/08/10 01:57:55;;;;;;;0.00;0.00;;;11.40;99.90;;;;;;5055065;28;20052;-87
2023/08/10 02:00:21;;;;;;;0.13;0.10;;;11.40;99.90;;;;;;5054829;28;20446;-86
2023/08/10 02:02:47;;;;;;;0.00;0.00;;;12.60;99.90;;;;;;5053249;28;20060;-87
2023/08/10 02:05:13;;;;;;;0.60;0.30;;;12.10;99.90;;;;;;5053226;28;20047;-86
2023/08/10 02:07:41;;;;;;;1.55;0.22;;;11.60;99.90;;;;;;5053121;28;20053;-87
2023/08/10 02:10:08;;;;;;;2.20;0.30;;;11.40;99.90;;;;;;5052550;28;20499;-86
2023/08/10 02:12:33;;;;;;;0.00;0.00;;;11.40;99.90;;;;;;5052198;28;20049;-86
2023/08/10 02:15:00;;;;;;;0.00;0.00;;;11.40;99.90;;;;;;5053886;28;20068;-86
2023/08/10 02:17:35;;;;;;;0.05;0.05;;;11.30;99.90;;;;;;5053018;28;20466;-87
2023/08/10 02:20:04;;;;;;;0.00;0.00;;;11.30;99.90;;;;;;5035932;28;20041;-87
2023/08/10 02:22:30;;;;;;;0.00;0.00;;;11.20;99.90;;;;;;5053836;28;20110;-86
2023/08/10 02:24:55;;;;;;;0.20;0.15;;;12.30;99.90;;;;;;5053729;28;20053;-87
2023/08/10 02:27:21;;;;;;;0.00;0.00;;;11.10;99.90;;;;;;5053828;28;20084;-87
2023/08/10 02:29:47;;;;;;;0.00;0.00;;;11.10;99.90;;;;;;5051924;28;20128;-86
2023/08/10 02:32:16;;;;;;;0.20;0.20;;;11.10;99.90;;;;;;5052134;28;20049;-87
2023/08/10 02:34:42;;;;;;;0.00;0.00;;;11.00;99.90;;;;;;5051345;28;20069;-87
2023/08/10 02:37:08;;;;;;;1.00;0.90;;;11.10;99.90;;;;;;5052701;28;20052;-87
2023/08/10 02:39:34;;;;;;;0.00;0.00;;;11.10;99.90;;;;;;5035330;28;20867;-87
2023/08/10 02:41:59;;;;;;;0.05;0.05;;;11.10;99.90;;;;;;5051856;28;20057;-87
2023/08/10 02:44:25;;;;;;;3.65;0.93;;;11.10;99.90;;;;;;5053152;28;20059;-87
2023/08/10 02:46:51;;;;;;;0.00;0.00;;;11.50;1.00;;;;;;5053332;28;20045;-86
2023/08/10 02:49:17;;;;;;;0.00;0.00;;;11.30;99.90;;;;;;5053565;28;20056;-87
2023/08/10 02:51:42;;;;;;;0.17;0.17;;;11.30;99.90;;;;;;5053271;28;20045;-87
2023/08/10 02:54:08;;;;;;;0.20;0.20;;;11.30;99.90;;;;;;5051569;28;20051;-86
2023/08/10 02:56:34;;;;;;;0.00;0.00;;;11.30;99.90;;;;;;5051241;28;20136;-86
2023/08/10 02:58:59;;;;;;;0.88;0.30;;;11.20;99.90;;;;;;5034655;28;20163;-86
2023/08/10 03:01:25;;;;;;;0.22;0.13;;;11.20;99.90;;;;;;5051172;28;20057;-86
2023/08/10 03:03:51;;;;;;;0.00;0.00;;;11.20;99.90;;;;;;5053072;28;20092;-86
2023/08/10 03:06:16;;;;;;;0.45;0.45;;;11.20;1.00;;;;;;5053003;28;20095;-86
2023/08/10 03:08:43;;;;;;;0.30;0.20;;;12.30;99.90;;;;;;5052633;28;20048;-87
2023/08/10 03:11:09;;;;;;;0.10;0.10;;;11.30;99.90;;;;;;5052978;28;20056;-87
2023/08/10 03:13:34;;;;;;;0.47;0.47;;;11.30;99.90;;;;;;5052854;28;20044;-86
2023/08/10 03:16:00;;;;;;;0.00;0.00;;;11.30;99.90;;;;;;5051424;28;20057;-86
2023/08/10 03:18:26;;;;;;;0.20;0.20;;;11.20;99.90;;;;;;5051123;28;20053;-86
2023/08/10 03:20:51;;;;;;;0.20;0.13;;;11.20;99.90;;;;;;5052187;28;20834;-87
2023/08/10 03:23:17;;;;;;;0.00;0.00;;;11.20;99.90;;;;;;5051062;28;20057;-87
2023/08/10 03:25:43;;;;;;;0.10;0.10;;;12.00;99.90;;;;;;5051994;28;20081;-87
2023/08/10 03:28:08;;;;;;;1.98;0.15;;;11.10;99.90;;;;;;5052062;28;20056;-86
2023/08/10 03:30:36;;;;;;;0.10;0.10;;;11.10;99.90;;;;;;5051994;28;20048;-87
2023/08/10 03:33:02;;;;;;;0.00;0.00;;;11.20;99.90;;;;;;5052841;28;20063;-87
2023/08/10 03:35:27;;;;;;;0.20;0.17;;;11.20;99.90;;;;;;5052097;28;20139;-87
2023/08/10 03:37:53;;;;;;;0.15;0.08;;;11.30;99.90;;;;;;5051160;28;20067;-87
2023/08/10 03:40:19;;;;;;;1.85;0.50;;;11.30;1.00;;;;;;5051407;28;20051;-88
2023/08/10 03:42:44;;;;;;;0.13;0.13;;;11.40;1.00;;;;;;5051327;28;20173;-87
2023/08/10 03:45:10;;;;;;;0.20;0.20;;;11.40;1.00;;;;;;5050850;28;20053;-87
2023/08/10 03:47:36;;;;;;;0.00;0.00;;;11.40;1.00;;;;;;5052652;28;20371;-87
2023/08/10 03:50:02;;;;;;;0.17;0.10;;;12.60;1.00;;;;;;5051462;28;20080;-87
2023/08/10 03:52:27;;;;;;;0.00;0.00;;;11.50;1.00;;;;;;5053313;28;20049;-87
2023/08/10 03:54:53;;;;;;;0.25;0.15;;;11.50;1.00;;;;;;5037491;28;20094;-87
2023/08/10 03:57:19;;;;;;;0.10;0.10;;;11.60;1.00;;;;;;5053668;28;20686;-88
2023/08/10 03:59:45;;;;;;;0.43;0.40;;;11.60;1.00;;;;;;5053637;28;20483;-87
2023/08/10 04:02:11;;;;;;;0.10;0.10;;;11.70;1.00;;;;;;5053953;28;20037;-87
2023/08/10 04:04:38;;;;;;;0.00;0.00;;;11.60;99.90;;;;;;5035877;28;20048;-87
2023/08/10 04:07:04;;;;;;;0.00;0.00;;;12.70;99.90;;;;;;5053537;28;20056;-87
2023/08/10 04:09:29;;;;;;;0.63;0.35;;;11.70;99.90;;;;;;5055671;28;20041;-87
2023/08/10 04:11:55;;;;;;;0.00;0.00;;;12.40;99.90;;;;;;5051706;28;20051;-87
2023/08/10 04:14:21;;;;;;;0.08;0.08;;;11.80;99.90;;;;;;5036542;28;20519;-87
2023/08/10 04:16:47;;;;;;;0.52;0.35;;;11.80;99.90;;;;;;5053932;28;20078;-87
2023/08/10 04:19:13;;;;;;;0.00;0.00;;;11.80;99.90;;;;;;5036167;28;20052;-86
2023/08/10 04:21:39;;;;;;;0.15;0.10;;;11.80;99.90;;;;;;5052433;28;20045;-86
2023/08/10 04:24:05;;;;;;;1.00;0.43;;;11.80;99.90;;;;;;5036728;28;20059;-86
2023/08/10 04:26:31;;;;;;;0.00;0.00;;;11.80;99.90;;;;;;5053850;28;20041;-86
2023/08/10 04:28:57;;;;;;;0.13;0.13;;;11.90;99.90;;;;;;5053905;28;20037;-87
2023/08/10 04:31:23;;;;;;;0.35;0.30;;;11.90;99.90;;;;;;5052057;28;20041;-87
2023/08/10 04:33:49;;;;;;;0.00;0.00;;;12.90;99.90;;;;;;5052236;28;20048;-85
2023/08/10 04:36:14;;;;;;;0.00;0.00;;;12.00;99.90;;;;;;5051910;28;20056;-86
2023/08/10 04:38:40;;;;;;;0.00;0.00;;;12.10;99.90;;;;;;5053883;28;20041;-86
2023/08/10 04:41:06;;;;;;;0.00;0.00;;;12.30;1.00;;;;;;5051847;28;20045;-87
2023/08/10 04:43:31;;;;;;;0.00;0.00;;;12.10;1.00;;;;;;5051999;28;20045;-86
2023/08/10 04:45:57;;;;;;;0.03;0.03;;;12.10;1.00;;;;;;5053001;28;20076;-86
2023/08/10 04:48:22;;;;;;;2.30;0.75;;;12.20;1.00;;;;;;5059796;28;20056;-86
2023/08/10 04:50:48;;;;;;;0.10;0.10;;;12.20;1.00;;;;;;5044063;28;20059;-86
2023/08/10 04:53:14;;;;;;;0.00;0.00;;;12.30;1.00;;;;;;5059256;28;20053;-87
2023/08/10 04:55:41;;;;;;;0.17;0.10;;;13.50;1.00;;;;;;5041267;28;20124;-87
2023/08/10 04:58:07;;;;;;;3.72;1.08;;;12.50;99.90;;;;;;5040422;28;20136;-87
2023/08/10 05:00:32;;;;;;;0.00;0.00;;;12.50;99.90;;;;;;5040326;28;20073;-87
2023/08/10 05:02:58;;;;;;;0.00;0.00;;;13.70;99.90;;;;;;5056571;28;20048;-87
2023/08/10 05:05:25;;;;;;;0.55;0.55;;;12.60;99.90;;;;;;5056996;28;20052;-87
2023/08/10 05:07:50;;;;;;;0.10;0.10;;;12.60;99.90;;;;;;5057089;28;20087;-86
2023/08/10 05:10:16;;;;;;;0.17;0.17;;;12.70;99.90;;;;;;5061805;28;20045;-86
2023/08/10 05:12:42;;;;;;;0.17;0.08;;;12.70;99.90;;;;;;5043869;28;20056;-86
2023/08/10 05:15:09;;;;;;;0.17;0.10;;;12.70;99.90;;;;;;5064196;28;20045;-86
2023/08/10 05:17:37;;;;;;;0.32;0.32;;;12.80;99.90;;;;;;5036349;28;20423;-86
2023/08/10 05:20:10;;;;;;;0.35;0.28;;;12.90;99.90;;;;;;5046213;28;20131;-86
2023/08/10 05:22:40;;;;;;;0.00;0.00;;;13.00;99.90;;;;;;5045990;28;20053;-86
2023/08/10 05:25:08;;;;;;;0.00;0.00;;;13.10;99.90;;;;;;5045692;28;20072;-86
2023/08/10 05:27:38;;;;;;;0.88;0.80;;;13.20;99.90;;;;;;5045480;28;20106;-86
2023/08/10 05:30:11;;;;;;;0.00;0.00;;;13.40;99.90;;;;;;5045472;28;20080;-87
2023/08/10 05:32:39;;;;;;;0.08;0.08;;;13.60;99.90;;;;;;5047044;28;20123;-86
2023/08/10 05:35:06;;;;;;;0.13;0.10;;;13.60;99.90;;;;;;5045556;28;20110;-86
2023/08/10 05:37:33;;;;;;;0.05;0.05;;;13.70;9.80;;;;;;5046653;28;20053;-87
2023/08/10 05:39:59;;;;;;;0.00;0.00;;;13.80;1.00;;;;;;5045489;28;20097;-87
2023/08/10 05:42:25;;;;;;;0.00;0.00;;;13.90;1.00;;;;;;5042501;28;20045;-87
2023/08/10 05:44:51;;;;;;;0.00;0.00;;;14.10;1.00;;;;;;5023952;28;20435;-87
2023/08/10 05:47:17;;;;;;;0.15;0.15;;;14.20;99.90;;;;;;5040816;28;20045;-87
2023/08/10 05:49:43;;;;;;;1.67;0.57;;;14.30;99.90;;;;;;5041352;28;20485;-87
2023/08/10 05:52:08;;;;;;;0.17;0.17;;;14.50;99.90;;;;;;5040996;28;20606;-87
2023/08/10 05:54:34;;;;;;;0.10;0.10;;;14.60;99.90;;;;;;5024842;28;20041;-87
2023/08/10 05:57:00;;;;;;;0.00;0.00;;;14.70;50.80;;;;;;5041944;28;20120;-87
2023/08/10 05:59:26;;;;;;;0.00;0.00;;;14.80;1.00;;;;;;5051473;28;20084;-87
2023/08/10 06:01:55;;;;;;;0.25;0.17;;;14.80;1.00;;;;;;5026539;28;20041;-87
2023/08/10 06:04:21;;;;;;;0.30;0.30;;;14.80;1.00;;;;;;5044797;28;20040;-87
2023/08/10 06:06:47;;;;;;;1.08;0.52;;;14.90;1.00;;;;;;5025816;28;20076;-87
2023/08/10 06:09:13;;;;;;;0.47;0.38;;;14.90;1.00;;;;;;5043982;28;20099;-87
2023/08/10 06:11:39;;;;;;;0.20;0.20;;;15.10;99.90;;;;;;5027718;28;20045;-87
2023/08/10 06:14:05;;;;;;;4.43;0.20;;;15.20;99.90;;;;;;5035909;28;20063;-87
2023/08/10 06:16:30;;;;;;;0.10;0.10;;;15.40;99.90;;;;;;5065723;28;20105;-87
2023/08/10 06:18:56;;;;;;;0.00;0.00;;;15.50;99.90;;;;;;5066961;28;20202;-87
2023/08/10 06:21:22;;;;;;;8.35;1.55;;;15.60;99.90;;;;;;5064398;28;20041;-87
2023/08/10 06:23:48;;;;;;;0.00;0.00;;;16.10;99.90;;;;;;5057424;28;20080;-87
2023/08/10 06:26:14;;;;;;;0.10;0.10;;;17.10;1.00;;;;;;5065187;28;20036;-88
2023/08/10 06:28:39;;;;;;;0.65;0.40;;;18.80;1.00;;;;;;5061932;28;20037;-87
2023/08/10 06:31:11;;;;;;;2.30;0.88;;;19.30;78.90;;;;;;5060484;28;20052;-85
2023/08/10 06:33:37;;;;;;;0.03;0.03;;;20.30;99.90;;;;;;5049435;28;20071;-86
2023/08/10 06:36:06;;;;;;;0.20;0.20;;;21.20;70.20;;;;;;5044934;28;20068;-87
2023/08/10 06:38:34;;;;;;;0.10;0.10;;;22.00;1.00;;;;;;5047217;28;20047;-87
2023/08/10 06:41:00;;;;;;;0.10;0.10;;;22.60;99.90;;;;;;5046120;28;20056;-87
2023/08/10 06:43:26;;;;;;;0.00;0.00;;;23.20;99.90;;;;;;5046600;28;20053;-87
2023/08/10 06:45:51;;;;;;;0.00;0.00;;;23.80;99.90;;;;;;5045277;28;20053;-87
2023/08/10 06:48:17;;;;;;;0.98;0.20;;;24.00;99.90;;;;;;5044082;28;20044;-87
2023/08/10 06:50:43;;;;;;;0.30;0.30;;;24.30;99.90;;;;;;5042806;28;20309;-85
2023/08/10 06:53:09;;;;;;;0.00;0.00;;;24.70;99.90;;;;;;5042671;28;20043;-85
2023/08/10 06:55:35;;;;;;;1.00;0.55;;;25.00;61.70;;;;;;5042379;28;20044;-84
2023/08/10 06:58:02;;;;;;;0.75;0.55;;;25.30;90.60;;;;;;5042597;28;20458;-84
2023/08/10 07:00:28;;;;;;;0.00;0.00;;;25.60;49.40;;;;;;5040368;28;20049;-84
2023/08/10 07:02:56;;;;;;;0.63;0.45;;;25.90;1.00;;;;;;5041985;28;20041;-84
2023/08/10 07:05:23;;;;;;;0.00;0.00;;;26.20;1.00;;;;;;5041624;28;20076;-85
2023/08/10 07:07:49;;;;;;;0.20;0.15;;;26.30;1.00;;;;;;5041985;28;20043;-85
2023/08/10 07:10:15;;;;;;;0.00;0.00;;;26.00;99.90;;;;;;5042013;28;20279;-85
2023/08/10 07:12:42;;;;;;;0.20;0.20;;;26.10;99.90;;;;;;5041698;28;20131;-84
2023/08/10 07:15:08;;;;;;;0.00;0.00;;;26.40;99.90;;;;;;5040282;28;20247;-84
2023/08/10 07:17:35;;;;;;;0.20;0.20;;;26.60;99.90;;;;;;5042061;28;20048;-84
2023/08/10 07:20:03;;;;;;;0.00;0.00;;;26.60;99.90;;;;;;5040724;28;20414;-85
2023/08/10 07:22:29;;;;;;;0.00;0.00;;;26.90;99.90;;;;;;5040171;28;20044;-84
2023/08/10 07:24:54;;;;;;;0.00;0.00;;;27.20;99.90;;;;;;5040668;28;20056;-84
2023/08/10 07:27:20;;;;;;;0.08;0.08;;;27.30;99.90;;;;;;5042438;28;20045;-85
2023/08/10 07:29:46;;;;;;;0.32;0.05;;;27.60;99.90;;;;;;5040170;28;20049;-84
2023/08/10 07:32:14;;;;;;;0.10;0.10;;;27.60;99.90;;;;;;5041600;28;20053;-85
2023/08/10 07:34:39;;;;;;;0.00;0.00;;;28.00;99.90;;;;;;5039599;28;20072;-85
2023/08/10 07:37:05;;;;;;;0.00;0.00;;;28.30;99.90;;;;;;5041665;28;20148;-84
2023/08/10 07:39:31;;;;;;;0.00;0.00;;;28.00;99.90;;;;;;5039996;28;20509;-85
2023/08/10 07:41:57;;;;;;;0.55;0.43;;;28.10;99.90;;;;;;5041213;28;20403;-85
2023/08/10 07:44:22;;;;;;;0.20;0.10;;;28.20;99.90;;;;;;5039981;28;20246;-85
2023/08/10 07:46:48;;;;;;;0.00;0.00;;;28.30;62.40;;;;;;5043304;28;20475;-84
2023/08/10 07:49:17;;;;;;;0.00;0.00;;;28.10;50.30;;;;;;5043832;28;20099;-88
2023/08/10 07:51:47;;;;;;;0.35;0.20;;;28.80;90.90;;;;;;5043670;28;20480;-87
2023/08/10 07:54:15;;;;;;;0.75;0.65;;;28.20;1.00;;;;;;5041563;28;20564;-87
2023/08/10 07:56:42;;;;;;;0.10;0.10;;;28.30;1.00;;;;;;5042190;28;20157;-87
2023/08/10 07:59:08;;;;;;;0.43;0.10;;;27.60;1.00;;;;;;5045339;28;20092;-87
2023/08/10 08:01:33;;;;;;;0.10;0.10;;;26.80;1.00;;;;;;5044635;28;20048;-86
2023/08/10 08:03:59;;;;;;;0.30;0.22;;;26.20;1.00;;;;;;5043080;28;20102;-87
2023/08/10 08:06:25;;;;;;;0.03;0.03;;;25.90;1.00;;;;;;5044694;28;20479;-86
2023/08/10 08:08:50;;;;;;;0.50;0.30;;;25.70;1.00;;;;;;5042994;28;20127;-86
2023/08/10 08:11:17;;;;;;;0.52;0.13;;;25.30;1.00;;;;;;5043738;28;20127;-87
2023/08/10 08:13:43;;;;;;;0.00;0.00;;;25.00;1.00;;;;;;5043652;28;20090;-87
2023/08/10 08:16:10;;;;;;;0.40;0.22;;;24.80;1.00;;;;;;5043960;28;20061;-87
2023/08/10 08:18:56;;;;;;;0.57;0.38;;;24.30;1.00;;;;;;5045154;28;20044;-87
2023/08/10 08:21:23;;;;;;;;;;;23.80;1.00;;;;;;5028191;28;20530;-87
2023/08/10 08:23:50;;;;;;;0.00;0.00;;;23.30;1.00;;;;;;5045227;28;19925;-87
2023/08/10 08:26:18;;;;;;;0.45;0.15;;;23.00;1.00;;;;;;5044492;28;20057;-87
2023/08/10 08:28:44;;;;;;;0.15;0.13;;;22.80;1.00;;;;;;5044247;28;20470;-87
2023/08/10 08:31:10;;;;;;;0.00;0.00;;;22.60;1.00;;;;;;5041762;28;20045;-87
2023/08/10 08:33:36;;;;;;;0.00;0.00;;;22.50;1.00;;;;;;5042231;28;20135;-87
2023/08/10 08:36:03;;;;;;;1.08;0.43;;;22.40;1.00;;;;;;5042568;28;20093;-87
2023/08/10 08:38:29;;;;;;;0.32;0.32;;;22.30;1.00;;;;;;5041706;28;20049;-86
2023/08/10 08:40:56;;;;;;;0.28;0.17;;;22.10;1.00;;;;;;5041638;28;20469;-86
2023/08/10 08:43:22;;;;;;;0.00;0.00;;;21.90;1.00;;;;;;5041258;28;20055;-87
2023/08/10 08:45:48;;;;;;;0.00;0.00;;;21.90;1.00;;;;;;5043176;28;20056;-87
2023/08/10 08:48:15;;;;;;;0.08;0.05;;;21.80;1.00;;;;;;5041280;28;20411;-87
2023/08/10 08:50:43;;;;;;;0.47;0.43;;;21.60;1.00;;;;;;5042881;28;20056;-87
2023/08/10 08:53:10;;;;;;;0.32;0.08;;;21.70;1.00;;;;;;5024744;28;20057;-87
2023/08/10 08:55:38;;;;;;;0.30;0.30;;;21.70;1.00;;;;;;5024574;28;20075;-87
2023/08/10 08:58:04;;;;;;;0.00;0.00;;;22.00;1.00;;;;;;5041159;28;20040;-87
2023/08/10 09:00:31;;;;;;;0.13;0.10;;;22.10;1.00;;;;;;5041276;28;20518;-86
2023/08/10 09:02:57;;;;;;;0.08;0.08;;;22.40;1.00;;;;;;5024852;28;20048;-86
2023/08/10 09:05:23;;;;;;;0.08;0.08;;;22.60;1.00;;;;;;5040729;28;20045;-86
2023/08/10 09:07:50;;;;;;;0.00;0.00;;;22.60;1.00;;;;;;5024490;28;20037;-87
2023/08/10 09:10:16;;;;;;;0.00;0.00;;;22.70;1.00;;;;;;5043000;28;20518;-87
2023/08/10 09:12:41;;;;;;;0.30;0.05;;;22.80;1.00;;;;;;5042796;28;20045;-87
2023/08/10 09:15:11;;;;;;;1.15;0.38;;;22.30;1.00;;;;;;5042905;28;20075;-86
2023/08/10 09:17:42;;;;;;;0.10;0.10;;;22.40;1.00;;;;;;5042471;28;20107;-86
2023/08/10 09:20:08;;;;;;;0.20;0.10;;;22.60;1.00;;;;;;5043004;28;20045;-87
2023/08/10 09:22:39;;;;;;;0.00;0.00;;;22.50;1.00;;;;;;5024510;28;20124;-87
2023/08/10 09:25:09;;;;;;;0.00;0.00;;;22.50;1.00;;;;;;5042884;28;20063;-87
2023/08/10 09:27:35;;;;;;;0.47;0.20;;;22.30;1.00;;;;;;5041311;28;20049;-87
2023/08/10 09:30:06;;;;;;;0.13;0.13;;;22.80;1.00;;;;;;5042854;28;20467;-87
2023/08/10 09:32:33;;;;;;;0.00;0.00;;;22.60;1.00;;;;;;5041107;28;20064;-87
2023/08/10 09:34:59;;;;;;;0.00;0.00;;;22.90;1.00;;;;;;5042873;28;20057;-86
2023/08/10 09:37:25;;;;;;;0.20;0.20;;;22.80;1.00;;;;;;5042652;28;20061;-87
2023/08/10 09:39:57;;;;;;;0.05;0.05;;;22.90;1.00;;;;;;5024949;28;20049;-87
2023/08/10 09:42:23;;;;;;;0.00;0.00;;;23.30;1.00;;;;;;5024954;28;20083;-87
2023/08/10 09:44:51;;;;;;;0.10;0.10;;;23.00;1.00;;;;;;5043788;28;20048;-87
2023/08/10 09:47:18;;;;;;;0.05;0.05;;;23.00;1.00;;;;;;5043057;28;20156;-87
2023/08/10 09:50:00;;;;;;;0.00;0.00;;;23.20;1.00;;;;;;5046631;28;20045;-87
2023/08/10 09:52:27;;;;;;;0.75;0.40;;;23.40;1.00;;;;;;5044656;28;20122;-87
2023/08/10 09:54:55;;;;;;;0.10;0.10;;;23.70;1.00;;;;;;5044093;28;20056;-87
2023/08/10 09:57:21;;;;;;;0.00;0.00;;;23.70;1.00;;;;;;5044116;28;20874;-87
2023/08/10 09:59:48;;;;;;;0.00;0.00;;;23.80;1.00;;;;;;5044036;28;20044;-87
2023/08/10 10:02:15;;;;;;;0.00;0.00;;;23.70;1.00;;;;;;5045328;28;20090;-87
2023/08/10 10:04:42;;;;;;;0.00;0.00;;;23.70;1.00;;;;;;5027822;28;20087;-87
2023/08/10 10:07:11;;;;;;;0.03;0.03;;;23.70;1.00;;;;;;5043661;28;20038;-87
2023/08/10 10:09:38;;;;;;;0.00;0.00;;;23.70;1.00;;;;;;5026315;28;20052;-87
2023/08/10 10:12:10;;;;;;;0.00;0.00;;;23.60;1.00;;;;;;5026168;28;20051;-86
2023/08/10 10:14:48;;;;;;;0.00;0.00;;;23.50;1.00;;;;;;5042322;28;20044;-86
2023/08/10 10:17:16;;;;;;;1.45;0.30;;;23.20;1.00;;;;;;5042281;28;20048;-86
2023/08/10 10:19:43;;;;;;;0.75;0.57;;;23.10;1.00;;;;;;5026146;28;20049;-87
2023/08/10 10:22:09;;;;;;;0.45;0.45;;;23.00;1.00;;;;;;5043302;28;20044;-87
2023/08/10 10:24:39;;;;;;;0.00;0.00;;;23.00;1.00;;;;;;5042541;28;20049;-87
2023/08/10 10:27:10;;;;;;;0.00;0.00;;;22.80;1.00;;;;;;5045278;28;20063;-86
2023/08/10 10:29:52;;;;;;;0.10;0.05;;;22.90;1.00;;;;;;5044126;28;20432;-86
2023/08/10 10:32:19;;;;;;;0.00;0.00;;;23.00;1.00;;;;;;5038764;28;20084;-86
2023/08/10 10:34:46;;;;;;;0.00;0.00;;;23.10;1.00;;;;;;5025826;28;20099;-87
2023/08/10 10:37:29;;;;;;;0.00;0.00;;;23.10;1.00;;;;;;5026440;28;20495;-86
2023/08/10 10:40:14;;;;;;;2.75;1.15;;;22.90;1.00;;;;;;5026695;28;20385;-87
2023/08/10 10:43:02;;;;;;;0.08;0.08;;;22.60;1.00;;;;;;5027138;28;20045;-87
2023/08/10 10:45:28;;;;;;;0.80;0.43;;;22.40;1.00;;;;;;5012127;28;20056;-87
2023/08/10 10:47:55;;;;;;;0.00;0.00;;;22.50;1.00;;;;;;5044717;28;20552;-87
2023/08/10 10:50:29;;;;;;;0.20;0.17;;;22.60;1.00;;;;;;5029601;28;20145;-87
2023/08/10 10:53:01;;;;;;;0.28;0.28;;;22.70;1.00;;;;;;5029050;28;20049;-87
2023/08/10 10:55:33;;;;;;;0.75;0.50;;;22.80;1.00;;;;;;5043838;28;20111;-87
2023/08/10 10:58:02;;;;;;;0.00;0.00;;;22.90;1.00;;;;;;5028491;28;20041;-87
2023/08/10 11:00:28;;;;;;;0.10;0.10;;;22.90;1.00;;;;;;5046419;28;20056;-87
2023/08/10 11:02:54;;;;;;;0.10;0.10;;;22.90;1.00;;;;;;5028239;28;20476;-87
2023/08/10 11:05:20;;;;;;;0.20;0.10;;;22.90;1.00;;;;;;5029207;28;20074;-88
2023/08/10 11:07:51;;;;;;;0.00;0.00;;;23.00;1.00;;;;;;5027822;28;20504;-87
2023/08/10 11:10:21;;;;;;;0.00;0.00;;;23.30;1.00;;;;;;5046175;28;20519;-87
2023/08/10 11:12:49;;;;;;;0.45;0.32;;;23.30;1.00;;;;;;5025215;28;20132;-87
2023/08/10 11:15:16;;;;;;;0.43;0.20;;;23.30;1.00;;;;;;5028455;28;20042;-88
2023/08/10 11:17:47;;;;;;;0.00;0.00;;;23.60;1.00;;;;;;5013352;28;20101;-87
2023/08/10 11:20:18;;;;;;;0.00;0.00;;;23.70;1.00;;;;;;5045411;28;20491;-87
2023/08/10 11:22:45;;;;;;;0.00;0.00;;;23.90;1.00;;;;;;5030658;28;20418;-88
2023/08/10 11:25:25;;;;;;;1.65;0.55;;;23.90;1.00;;;;;;5042449;28;20037;-87
2023/08/10 11:27:53;;;;;;;0.00;0.00;;;24.00;1.00;;;;;;5045155;28;20080;-88
2023/08/10 11:30:23;;;;;;;0.13;0.13;;;23.80;1.00;;;;;;5046491;28;20048;-87
2023/08/10 11:32:54;;;;;;;0.00;0.00;;;23.80;1.00;;;;;;5050040;28;20384;-87
2023/08/10 11:35:23;;;;;;;0.00;0.00;;;23.90;1.00;;;;;;5048303;28;20049;-87
2023/08/10 11:37:49;;;;;;;0.20;0.20;;;23.70;1.00;;;;;;5045189;28;20090;-87
2023/08/10 11:40:17;;;;;;;0.00;0.00;;;23.50;1.00;;;;;;5048403;28;20044;-87
2023/08/10 11:42:47;;;;;;;0.00;0.00;;;23.50;1.00;;;;;;5046507;28;20045;-86
2023/08/10 11:45:20;;;;;;;0.00;0.00;;;23.00;1.00;;;;;;5046820;28;20044;-87
2023/08/10 11:47:53;;;;;;;0.03;0.00;;;23.20;1.00;;;;;;5050697;28;20064;-86
2023/08/10 11:50:21;;;;;;;0.00;0.00;;;23.30;1.00;;;;;;5029365;28;20419;-87
2023/08/10 11:52:49;;;;;;;0.00;0.00;;;23.60;1.00;;;;;;5047216;28;20506;-87
2023/08/10 11:55:16;;;;;;;0.05;0.05;;;23.80;1.00;;;;;;5045257;28;20052;-87
2023/08/10 11:57:44;;;;;;;0.10;0.10;;;23.90;1.00;;;;;;5028901;28;20078;-87
2023/08/10 12:00:28;;;;;;;1.75;0.75;;;24.10;1.00;;;;;;5047823;28;20045;-87
2023/08/10 12:03:03;;;;;;;0.00;0.00;;;24.00;1.00;;;;;;5047488;28;20118;-87
2023/08/10 12:05:49;;;;;;;0.10;0.10;;;23.80;1.00;;;;;;5027593;28;20060;-87
2023/08/10 12:08:27;;;;;;;0.00;0.00;;;23.80;1.00;;;;;;5044130;28;20083;-87
2023/08/10 12:11:02;;;;;;;0.05;0.05;;;23.70;1.00;;;;;;5045379;28;20124;-87
2023/08/10 12:13:27;;;;;;;0.20;0.13;;;23.70;1.00;;;;;;5043390;28;20475;-87
2023/08/10 12:15:55;;;;;;;0.03;0.03;;;23.70;1.00;;;;;;5048433;28;20047;-87
2023/08/10 12:18:22;;;;;;;0.00;0.00;;;23.80;1.00;;;;;;5043694;28;20049;-87
2023/08/10 12:20:52;;;;;;;0.10;0.10;;;23.80;1.00;;;;;;5043258;28;20525;-87
2023/08/10 12:23:19;;;;;;;0.60;0.25;;;23.80;1.00;;;;;;5046605;28;20049;-87
2023/08/10 12:25:46;;;;;;;0.20;0.08;;;23.90;1.00;;;;;;5027883;28;20133;-87
2023/08/10 12:28:13;;;;;;;0.25;0.20;;;23.90;1.00;;;;;;5044994;28;20152;-87
2023/08/10 12:30:39;;;;;;;2.72;0.65;;;23.90;1.00;;;;;;5045497;28;20822;-87
2023/08/10 12:33:10;;;;;;;0.30;0.15;;;23.70;1.00;;;;;;5047188;28;20099;-87
2023/08/10 12:35:36;;;;;;;0.22;0.20;;;23.80;1.00;;;;;;5046523;28;20661;-87
2023/08/10 12:38:03;;;;;;;0.65;0.47;;;23.70;1.00;;;;;;5048518;28;20049;-87
2023/08/10 12:40:29;;;;;;;0.00;0.00;;;23.50;1.00;;;;;;5044637;28;20045;-87
2023/08/10 12:42:55;;;;;;;0.25;0.17;;;23.10;1.00;;;;;;5048940;28;20127;-87
2023/08/10 12:45:22;;;;;;;0.10;0.03;;;22.80;1.00;;;;;;5043718;28;20456;-87
2023/08/10 12:47:49;;;;;;;0.45;0.35;;;22.40;1.00;;;;;;5044154;28;20911;-87
2023/08/10 12:50:17;;;;;;;0.55;0.20;;;22.20;1.00;;;;;;5023260;28;20048;-87
2023/08/10 12:52:45;;;;;;;0.10;0.10;;;22.00;1.00;;;;;;5039934;28;20045;-87
2023/08/10 12:55:11;;;;;;;0.00;0.00;;;21.90;1.00;;;;;;5040143;28;20052;-87